Moleson — HBLE — position and weather

sailwx.info

Track history (hours):
 
Tides and Currents Weather Stations Pressure Air Temp Water Temp Dewpoint Dewpoint Depression Visibility Wind Speed Wind Dir Waves Ship Positions

Moleson

Last reported at 2017-Aug-21 12:00 UTC. Time now 2017-Aug-21 12:01 UTC.
Position N 36°44' E 013°29'.

Length 181 m; draft 9.9 m.

Type: Cargo ship. MMSI: 269039000.

Date/timePositionNaut miles runAvg speedWind from/ knotsBaromVisibWave heightAir tempDewpointWater temp
2017-Aug-21 12:00N 36°44' E 013°29'611.9
2017-Aug-21 11:30N 36°46' E 013°22'611.9
2017-Aug-21 11:00N 36°48' E 013°15'612.0
2017-Aug-21 10:30N 36°49' E 013°08'612.1
2017-Aug-21 10:00N 36°51' E 013°01'611.9
2017-Aug-21 09:30N 36°53' E 012°54'612.1
2017-Aug-21 09:00N 36°55' E 012°46'612.1
2017-Aug-21 08:30N 36°57' E 012°39'612.1
2017-Aug-21 07:59N 36°59' E 012°32'611.7
2017-Aug-21 07:30N 37°01' E 012°25'711.5
2017-Aug-21 06:55N 37°03' E 012°17'4911.4
2017-Aug-21 02:34N 37°19' E 011°18'5811.7
2017-Aug-20 21:40N 37°33' E 010°08'211.6
2017-Aug-20 21:30N 37°33' E 010°05'611.6
2017-Aug-20 20:59N 37°33' E 009°58'611.5
2017-Aug-20 20:30N 37°34' E 009°51'611.3
2017-Aug-20 20:00N 37°34' E 009°44'611.2
2017-Aug-20 19:30N 37°35' E 009°37'27411.5
2017-Aug-19 19:41N 37°07' E 003°54'211.4
2017-Aug-19 19:30N 37°07' E 003°52'911.4
2017-Aug-19 18:43N 37°06' E 003°40'311.3
2017-Aug-19 18:30N 37°05' E 003°37'811.4
2017-Aug-19 17:48N 37°04' E 003°27'311.3
2017-Aug-19 17:30N 37°04' E 003°23'1111.4
2017-Aug-19 16:32N 37°03' E 003°09'011.4
2017-Aug-19 16:30N 37°03' E 003°09'611.6
2017-Aug-19 16:00N 37°02' E 003°02'611.6
2017-Aug-19 15:31N 37°02' E 002°55'611.5
2017-Aug-19 15:01N 37°01' E 002°48'1111.4
2017-Aug-19 14:01N 36°58' E 002°33'5411.2
2017-Aug-19 09:11N 36°48' E 001°27'1311.2
2017-Aug-19 08:02N 36°46' E 001°12'011.3
2017-Aug-19 08:00N 36°46' E 001°11'2112.2
2017-Aug-19 06:14N 36°42' E 000°45'1612.4
2017-Aug-19 04:59N 36°38' E 000°26'611.9
2017-Aug-19 04:27N 36°37' E 000°18'712.0
2017-Aug-19 03:53N 36°35' E 000°10'1611.9
2017-Aug-19 02:33N 36°32' W 000°09'111.9
2017-Aug-19 02:29N 36°32' W 000°10'612.0
2017-Aug-19 01:57N 36°30' W 000°18'811.9
2017-Aug-19 01:18N 36°28' W 000°27'411.8
2017-Aug-19 00:58N 36°28' W 000°32'511.6
2017-Aug-19 00:30N 36°26' W 000°39'611.7
2017-Aug-18 23:59N 36°25' W 000°46'1311.8
2017-Aug-18 22:53N 36°22' W 001°02'3711.9
2017-Aug-18 19:49N 36°14' W 001°46'412.3
2017-Aug-18 19:30N 36°13' W 001°51'612.6
2017-Aug-18 18:59N 36°12' W 001°59'1412.8
2017-Aug-18 17:54N 36°09' W 002°15'1912.6
2017-Aug-18 16:21N 36°05' W 002°39'198 7.0
2017-Aug-17 12:16N 35°53' W 006°43'311.1
2017-Aug-17 12:00N 35°53' W 006°46'710.7
2017-Aug-17 11:23N 35°53' W 006°55'410.4
2017-Aug-17 11:00N 35°53' W 006°59'510.5
2017-Aug-17 10:30N 35°53' W 007°06'510.4
2017-Aug-17 10:00N 35°53' W 007°12'2110.8
2017-Aug-17 08:05N 35°53' W 007°38'111.1
2017-Aug-17 08:00N 35°53' W 007°39'511.1
2017-Aug-17 07:30N 35°53' W 007°46'611.1
2017-Aug-17 06:59N 35°53' W 007°53'511.1
2017-Aug-17 06:30N 35°53' W 007°60'711.3
2017-Aug-17 05:54N 35°53' W 008°08'411.2
2017-Aug-17 05:30N 35°53' W 008°13'610.9
2017-Aug-17 04:58N 35°53' W 008°21'510.8
2017-Aug-17 04:29N 35°53' W 008°27'510.9
2017-Aug-17 04:00N 35°53' W 008°34'510.8
2017-Aug-17 03:30N 35°53' W 008°40'510.5
2017-Aug-17 03:00N 35°53' W 008°47'1410.2
2017-Aug-17 01:35N 35°53' W 009°05'910.1
2017-Aug-17 00:43N 35°54' W 009°15'310.4
2017-Aug-17 00:26N 35°54' W 009°19'410.3
2017-Aug-17 00:00N 35°54' W 009°24'710.1
2017-Aug-16 23:20N 35°54' W 009°33'510.2
2017-Aug-16 22:50N 35°54' W 009°39'1010.1
2017-Aug-16 21:51N 35°55' W 009°51'410.0
2017-Aug-16 21:30N 35°55' W 009°56'510.0
2017-Aug-16 21:00N 35°54' W 010°02'510.2
2017-Aug-16 20:30N 35°54' W 010°08'510.2
2017-Aug-16 20:00N 35°54' W 010°14'5 9.9
2017-Aug-16 19:30N 35°54' W 010°21'510.0
2017-Aug-16 19:00N 35°54' W 010°27'510.1
2017-Aug-16 18:30N 35°55' W 010°33'510.0
2017-Aug-16 18:00N 35°55' W 010°39'510.1
2017-Aug-16 17:30N 35°54' W 010°45'510.0
2017-Aug-16 17:00N 35°54' W 010°52'510.2
2017-Aug-16 16:30N 35°54' W 010°58'510.3
2017-Aug-16 16:00N 35°54' W 011°04'510.1
2017-Aug-16 15:30N 35°54' W 011°10'510.2
2017-Aug-16 15:00N 35°54' W 011°17'510.2
2017-Aug-16 14:30N 35°54' W 011°23'510.2
2017-Aug-16 14:00N 35°54' W 011°29'510.2
2017-Aug-16 13:30N 35°54' W 011°36'510.2
2017-Aug-16 13:00N 35°54' W 011°42'510.4
2017-Aug-16 12:30N 35°54' W 011°48'610.4
2017-Aug-16 11:58N 35°54' W 011°55'4810.3
2017-Aug-16 07:17N 35°54' W 012°55'7310.3
2017-Aug-16 00:10N 35°53' W 014°25'2610.3
2017-Aug-15 21:38N 35°53' W 014°57'9610.6
2017-Aug-15 12:35N 35°48' W 016°55'110.5
2017-Aug-15 12:30N 35°48' W 016°56'29810.7
2017-Aug-14 08:32N 35°24' W 023°02'210.8
2017-Aug-14 08:23N 35°24' W 023°04'711.1
2017-Aug-14 07:47N 35°23' W 023°12'311.3
2017-Aug-14 07:29N 35°23' W 023°16'1411.1
2017-Aug-14 06:16N 35°21' W 023°33'511.4
2017-Aug-14 05:47N 35°21' W 023°39'711.3
2017-Aug-14 05:12N 35°20' W 023°47'311.2
2017-Aug-14 04:56N 35°20' W 023°51'511.2
2017-Aug-14 04:30N 35°19' W 023°57'811.1
2017-Aug-14 03:49N 35°18' W 024°06'511.1
2017-Aug-14 03:19N 35°18' W 024°13'1310.9
2017-Aug-14 02:08N 35°16' W 024°29'410.9
2017-Aug-14 01:48N 35°16' W 024°33'411.1
2017-Aug-14 01:28N 35°16' W 024°38'510.9
2017-Aug-14 00:59N 35°15' W 024°44'611.0
2017-Aug-14 00:28N 35°14' W 024°51'811.0
2017-Aug-13 23:43N 35°13' W 025°01'311.1
2017-Aug-13 23:30N 35°13' W 025°04'610.8
2017-Aug-13 22:58N 35°12' W 025°11'610.7
2017-Aug-13 22:26N 35°11' W 025°18'810.8
2017-Aug-13 21:42N 35°10' W 025°27'210.9
2017-Aug-13 21:29N 35°10' W 025°30'810.7
2017-Aug-13 20:43N 35°09' W 025°40'310.5
2017-Aug-13 20:26N 35°08' W 025°44'710.6
2017-Aug-13 19:45N 35°07' W 025°52'310.9
2017-Aug-13 19:31N 35°07' W 025°56'510.8
2017-Aug-13 19:00N 35°06' W 026°02'3311.0
2017-Aug-13 16:03N 35°00' W 026°42'111.1
2017-Aug-13 16:00N 35°00' W 026°42'  
Track history (hours):
 
Tides and Currents Weather Stations Pressure Air Temp Water Temp Dewpoint Dewpoint Depression Visibility Wind Speed Wind Dir Waves Ship Positions

Moleson

Last reported at 2017-Aug-21 12:00 UTC. Time now 2017-Aug-21 12:01 UTC.
Position N 36°44' E 013°29'.

Length 181 m; draft 9.9 m.

Type: Cargo ship. MMSI: 269039000.

Date/timePositionNaut miles runAvg speedWind from/ knotsBaromVisibWave heightAir tempDewpointWater temp
2017-Aug-21 12:00N 36°44' E 013°29'611.9
2017-Aug-21 11:30N 36°46' E 013°22'611.9
2017-Aug-21 11:00N 36°48' E 013°15'612.0
2017-Aug-21 10:30N 36°49' E 013°08'612.1
2017-Aug-21 10:00N 36°51' E 013°01'611.9
2017-Aug-21 09:30N 36°53' E 012°54'612.1
2017-Aug-21 09:00N 36°55' E 012°46'612.1
2017-Aug-21 08:30N 36°57' E 012°39'612.1
2017-Aug-21 07:59N 36°59' E 012°32'611.7
2017-Aug-21 07:30N 37°01' E 012°25'711.5
2017-Aug-21 06:55N 37°03' E 012°17'4911.4
2017-Aug-21 02:34N 37°19' E 011°18'5811.7
2017-Aug-20 21:40N 37°33' E 010°08'211.6
2017-Aug-20 21:30N 37°33' E 010°05'611.6
2017-Aug-20 20:59N 37°33' E 009°58'611.5
2017-Aug-20 20:30N 37°34' E 009°51'611.3
2017-Aug-20 20:00N 37°34' E 009°44'611.2
2017-Aug-20 19:30N 37°35' E 009°37'27411.5
2017-Aug-19 19:41N 37°07' E 003°54'211.4
2017-Aug-19 19:30N 37°07' E 003°52'911.4
2017-Aug-19 18:43N 37°06' E 003°40'311.3
2017-Aug-19 18:30N 37°05' E 003°37'811.4
2017-Aug-19 17:48N 37°04' E 003°27'311.3
2017-Aug-19 17:30N 37°04' E 003°23'1111.4
2017-Aug-19 16:32N 37°03' E 003°09'011.4
2017-Aug-19 16:30N 37°03' E 003°09'611.6
2017-Aug-19 16:00N 37°02' E 003°02'611.6
2017-Aug-19 15:31N 37°02' E 002°55'611.5
2017-Aug-19 15:01N 37°01' E 002°48'1111.4
2017-Aug-19 14:01N 36°58' E 002°33'5411.2
2017-Aug-19 09:11N 36°48' E 001°27'1311.2
2017-Aug-19 08:02N 36°46' E 001°12'011.3
2017-Aug-19 08:00N 36°46' E 001°11'2112.2
2017-Aug-19 06:14N 36°42' E 000°45'1612.4
2017-Aug-19 04:59N 36°38' E 000°26'611.9
2017-Aug-19 04:27N 36°37' E 000°18'712.0
2017-Aug-19 03:53N 36°35' E 000°10'1611.9
2017-Aug-19 02:33N 36°32' W 000°09'111.9
2017-Aug-19 02:29N 36°32' W 000°10'612.0
2017-Aug-19 01:57N 36°30' W 000°18'811.9
2017-Aug-19 01:18N 36°28' W 000°27'411.8
2017-Aug-19 00:58N 36°28' W 000°32'511.6
2017-Aug-19 00:30N 36°26' W 000°39'611.7
2017-Aug-18 23:59N 36°25' W 000°46'1311.8
2017-Aug-18 22:53N 36°22' W 001°02'3711.9
2017-Aug-18 19:49N 36°14' W 001°46'412.3
2017-Aug-18 19:30N 36°13' W 001°51'612.6
2017-Aug-18 18:59N 36°12' W 001°59'1412.8
2017-Aug-18 17:54N 36°09' W 002°15'1912.6
2017-Aug-18 16:21N 36°05' W 002°39'198 7.0
2017-Aug-17 12:16N 35°53' W 006°43'311.1
2017-Aug-17 12:00N 35°53' W 006°46'710.7
2017-Aug-17 11:23N 35°53' W 006°55'410.4
2017-Aug-17 11:00N 35°53' W 006°59'510.5
2017-Aug-17 10:30N 35°53' W 007°06'510.4
2017-Aug-17 10:00N 35°53' W 007°12'2110.8
2017-Aug-17 08:05N 35°53' W 007°38'111.1
2017-Aug-17 08:00N 35°53' W 007°39'511.1
2017-Aug-17 07:30N 35°53' W 007°46'611.1
2017-Aug-17 06:59N 35°53' W 007°53'511.1
2017-Aug-17 06:30N 35°53' W 007°60'711.3
2017-Aug-17 05:54N 35°53' W 008°08'411.2
2017-Aug-17 05:30N 35°53' W 008°13'610.9
2017-Aug-17 04:58N 35°53' W 008°21'510.8
2017-Aug-17 04:29N 35°53' W 008°27'510.9
2017-Aug-17 04:00N 35°53' W 008°34'510.8
2017-Aug-17 03:30N 35°53' W 008°40'510.5
2017-Aug-17 03:00N 35°53' W 008°47'1410.2
2017-Aug-17 01:35N 35°53' W 009°05'910.1
2017-Aug-17 00:43N 35°54' W 009°15'310.4
2017-Aug-17 00:26N 35°54' W 009°19'410.3
2017-Aug-17 00:00N 35°54' W 009°24'710.1
2017-Aug-16 23:20N 35°54' W 009°33'510.2
2017-Aug-16 22:50N 35°54' W 009°39'1010.1
2017-Aug-16 21:51N 35°55' W 009°51'410.0
2017-Aug-16 21:30N 35°55' W 009°56'510.0
2017-Aug-16 21:00N 35°54' W 010°02'510.2
2017-Aug-16 20:30N 35°54' W 010°08'510.2
2017-Aug-16 20:00N 35°54' W 010°14'5 9.9
2017-Aug-16 19:30N 35°54' W 010°21'510.0
2017-Aug-16 19:00N 35°54' W 010°27'510.1
2017-Aug-16 18:30N 35°55' W 010°33'510.0
2017-Aug-16 18:00N 35°55' W 010°39'510.1
2017-Aug-16 17:30N 35°54' W 010°45'510.0
2017-Aug-16 17:00N 35°54' W 010°52'510.2
2017-Aug-16 16:30N 35°54' W 010°58'510.3
2017-Aug-16 16:00N 35°54' W 011°04'510.1
2017-Aug-16 15:30N 35°54' W 011°10'510.2
2017-Aug-16 15:00N 35°54' W 011°17'510.2
2017-Aug-16 14:30N 35°54' W 011°23'510.2
2017-Aug-16 14:00N 35°54' W 011°29'510.2
2017-Aug-16 13:30N 35°54' W 011°36'510.2
2017-Aug-16 13:00N 35°54' W 011°42'510.4
2017-Aug-16 12:30N 35°54' W 011°48'610.4
2017-Aug-16 11:58N 35°54' W 011°55'4810.3
2017-Aug-16 07:17N 35°54' W 012°55'7310.3
2017-Aug-16 00:10N 35°53' W 014°25'2610.3
2017-Aug-15 21:38N 35°53' W 014°57'9610.6
2017-Aug-15 12:35N 35°48' W 016°55'110.5
2017-Aug-15 12:30N 35°48' W 016°56'29810.7
2017-Aug-14 08:32N 35°24' W 023°02'210.8
2017-Aug-14 08:23N 35°24' W 023°04'711.1
2017-Aug-14 07:47N 35°23' W 023°12'311.3
2017-Aug-14 07:29N 35°23' W 023°16'1411.1
2017-Aug-14 06:16N 35°21' W 023°33'511.4
2017-Aug-14 05:47N 35°21' W 023°39'711.3
2017-Aug-14 05:12N 35°20' W 023°47'311.2
2017-Aug-14 04:56N 35°20' W 023°51'511.2
2017-Aug-14 04:30N 35°19' W 023°57'811.1
2017-Aug-14 03:49N 35°18' W 024°06'511.1
2017-Aug-14 03:19N 35°18' W 024°13'1310.9
2017-Aug-14 02:08N 35°16' W 024°29'410.9
2017-Aug-14 01:48N 35°16' W 024°33'411.1
2017-Aug-14 01:28N 35°16' W 024°38'510.9
2017-Aug-14 00:59N 35°15' W 024°44'611.0
2017-Aug-14 00:28N 35°14' W 024°51'811.0
2017-Aug-13 23:43N 35°13' W 025°01'311.1
2017-Aug-13 23:30N 35°13' W 025°04'610.8
2017-Aug-13 22:58N 35°12' W 025°11'610.7
2017-Aug-13 22:26N 35°11' W 025°18'810.8
2017-Aug-13 21:42N 35°10' W 025°27'210.9
2017-Aug-13 21:29N 35°10' W 025°30'810.7
2017-Aug-13 20:43N 35°09' W 025°40'310.5
2017-Aug-13 20:26N 35°08' W 025°44'710.6
2017-Aug-13 19:45N 35°07' W 025°52'310.9
2017-Aug-13 19:31N 35°07' W 025°56'510.8
2017-Aug-13 19:00N 35°06' W 026°02'3311.0
2017-Aug-13 16:03N 35°00' W 026°42'111.1
2017-Aug-13 16:00N 35°00' W 026°42'  

Dump ship's entire track history